Time,TemperatureF,DewpointF,PressureIn,WindDirection,WindDirectionDegrees,WindSpeedMPH,WindSpeedGustMPH,Humidity,HourlyPrecipIn,Conditions,Clouds,dailyrainin,SoftwareType,DateUTC
2013-01-14 00:53:00,48.0,-2.0,29.88,SSE,153,2.0,4.0,12,-99.99,,,-99.99,,2013-01-14 05:53:00,
2013-01-14 01:03:00,48.0,-2.0,29.88,SSE,153,2.0,4.0,12,-99.99,,,-99.99,,2013-01-14 06:03:00,
2013-01-14 01:12:00,48.0,-2.0,29.88,SSE,153,2.0,4.0,12,-99.99,,,-99.99,,2013-01-14 06:12:00,
2013-01-14 01:22:00,48.0,-2.0,29.88,SSE,153,2.0,4.0,12,-99.99,,,-99.99,,2013-01-14 06:22:00,
2013-01-14 01:53:00,47.0,0.0,29.90,West,265,0.0,6.0,14,-99.99,,,-99.99,,2013-01-14 06:53:00,
2013-01-14 02:02:00,47.0,0.0,29.90,West,265,0.0,6.0,14,-99.99,,,-99.99,,2013-01-14 07:02:00,
2013-01-14 02:12:00,47.0,0.0,29.90,West,265,0.0,6.0,14,-99.99,,,-99.99,,2013-01-14 07:12:00,
2013-01-14 02:23:00,47.0,0.0,29.89,SE,139,1.0,4.0,14,-99.99,,,-99.99,,2013-01-14 07:23:00,
2013-01-14 02:33:00,47.0,0.0,29.89,SE,139,1.0,4.0,14,-99.99,,,-99.99,,2013-01-14 07:33:00,
2013-01-14 02:43:00,47.0,0.0,29.89,SE,139,1.0,4.0,14,-99.99,,,-99.99,,2013-01-14 07:43:00,
2013-01-14 02:53:00,47.0,0.0,29.89,SE,139,1.0,4.0,14,-99.99,,,-99.99,,2013-01-14 07:53:00,
2013-01-14 03:02:00,47.0,0.0,29.89,SE,139,1.0,4.0,14,-99.99,,,-99.99,,2013-01-14 08:02:00,
2013-01-14 04:23:00,47.0,0.0,29.87,SW,225,5.0,9.0,14,-99.99,,,-99.99,,2013-01-14 09:23:00,
2013-01-14 04:34:00,47.0,0.0,29.87,SW,225,5.0,9.0,14,-99.99,,,-99.99,,2013-01-14 09:34:00,
2013-01-14 04:43:00,47.0,0.0,29.87,SW,225,5.0,9.0,14,-99.99,,,-99.99,,2013-01-14 09:43:00,
2013-01-14 04:53:00,46.0,0.0,29.81,SSE,155,2.0,7.0,14,-99.99,,,-99.99,,2013-01-14 09:53:00,
2013-01-14 05:02:00,46.0,0.0,29.81,SSE,155,2.0,7.0,14,-99.99,,,-99.99,,2013-01-14 10:02:00,
2013-01-14 05:12:00,46.0,0.0,29.81,SSE,155,2.0,7.0,14,-99.99,,,-99.99,,2013-01-14 10:12:00,
2013-01-14 05:23:00,46.0,0.0,29.81,SSE,155,2.0,7.0,14,-99.99,,,-99.99,,2013-01-14 10:23:00,
2013-01-14 05:53:00,49.0,-1.0,29.85,SSE,148,2.0,4.0,12,-99.99,,,-99.99,,2013-01-14 10:53:00,
2013-01-14 06:02:00,49.0,-1.0,29.85,SSE,148,2.0,4.0,12,-99.99,,,-99.99,,2013-01-14 11:02:00,
2013-01-14 06:12:00,49.0,-1.0,29.85,SSE,148,2.0,4.0,12,-99.99,,,-99.99,,2013-01-14 11:12:00,
2013-01-14 06:22:00,49.0,-1.0,29.85,SSE,148,2.0,4.0,12,-99.99,,,-99.99,,2013-01-14 11:22:00,
2013-01-14 07:03:00,49.0,2.0,29.89,SE,135,1.0,4.0,14,-99.99,,,-99.99,,2013-01-14 12:03:00,
2013-01-14 07:12:00,49.0,2.0,29.89,SE,135,1.0,4.0,14,-99.99,,,-99.99,,2013-01-14 12:12:00,
2013-01-14 07:23:00,49.0,2.0,29.89,SE,135,1.0,4.0,14,-99.99,,,-99.99,,2013-01-14 12:23:00,
2013-01-14 07:33:00,49.0,2.0,29.89,SE,135,1.0,4.0,14,-99.99,,,-99.99,,2013-01-14 12:33:00,
2013-01-14 07:43:00,49.0,2.0,29.89,SE,135,1.0,4.0,14,-99.99,,,-99.99,,2013-01-14 12:43:00,
2013-01-14 08:53:00,47.0,-7.0,29.98,North,353,1.0,3.0,10,-99.99,,,-99.99,,2013-01-14 13:53:00,
2013-01-14 09:03:00,47.0,-7.0,29.98,North,353,1.0,3.0,10,-99.99,,,-99.99,,2013-01-14 14:03:00,
2013-01-14 09:13:00,47.0,-7.0,29.98,North,353,1.0,3.0,10,-99.99,,,-99.99,,2013-01-14 14:13:00,
2013-01-14 09:23:00,47.0,-7.0,29.98,North,353,1.0,3.0,10,-99.99,,,-99.99,,2013-01-14 14:23:00,
2013-01-14 09:33:00,47.0,-25.0,30.02,North,0,4.0,5.0,4,-99.99,,,-99.99,,2013-01-14 14:33:00,
2013-01-14 09:43:00,47.0,-25.0,30.02,North,0,4.0,5.0,4,-99.99,,,-99.99,,2013-01-14 14:43:00,
2013-01-14 12:03:00,47.0,41.0,30.11,WNW,294,8.0,12.0,79,-99.99,,,-99.99,,2013-01-14 17:03:00,
2013-01-14 12:12:00,47.0,41.0,30.11,WNW,294,8.0,12.0,79,-99.99,,,-99.99,,2013-01-14 17:12:00,
2013-01-14 12:23:00,47.0,41.0,30.11,WNW,294,8.0,12.0,79,-99.99,,,-99.99,,2013-01-14 17:23:00,
2013-01-14 12:33:00,46.0,39.0,30.09,NNE,18,5.0,10.0,77,-99.99,,,-99.99,,2013-01-14 17:33:00,
2013-01-14 12:43:00,46.0,39.0,30.09,NNE,18,5.0,10.0,77,-99.99,,,-99.99,,2013-01-14 17:43:00,
2013-01-14 12:54:00,45.0,39.0,30.09,North,2,5.0,6.0,80,-99.99,,,-99.99,,2013-01-14 17:54:00,
2013-01-14 13:03:00,44.0,39.0,30.10,NNW,348,6.0,10.0,82,-99.99,,,-99.99,,2013-01-14 18:03:00,
2013-01-14 13:13:00,44.0,39.0,30.10,NNW,348,6.0,10.0,82,-99.99,,,-99.99,,2013-01-14 18:13:00,
2013-01-14 13:23:00,44.0,39.0,30.10,NNW,348,6.0,10.0,82,-99.99,,,-99.99,,2013-01-14 18:23:00,
2013-01-14 13:33:00,44.0,39.0,30.10,NNW,348,6.0,10.0,82,-99.99,,,-99.99,,2013-01-14 18:33:00,
2013-01-14 13:43:00,44.0,39.0,30.10,NNW,348,6.0,10.0,82,-99.99,,,-99.99,,2013-01-14 18:43:00,
2013-01-14 14:53:00,44.0,34.0,30.12,North,4,3.0,11.0,68,-99.99,,,-99.99,,2013-01-14 19:53:00,
2013-01-14 15:04:00,44.0,34.0,30.12,North,4,3.0,11.0,68,-99.99,,,-99.99,,2013-01-14 20:04:00,
2013-01-14 15:13:00,44.0,34.0,30.12,North,4,3.0,11.0,68,-99.99,,,-99.99,,2013-01-14 20:13:00,
2013-01-14 15:23:00,44.0,34.0,30.12,North,4,3.0,11.0,68,-99.99,,,-99.99,,2013-01-14 20:23:00,
2013-01-14 15:53:00,41.0,32.0,30.14,NNW,348,4.0,12.0,70,-99.99,,,-99.99,,2013-01-14 20:53:00,
2013-01-14 16:03:00,41.0,32.0,30.14,NNW,348,4.0,12.0,70,-99.99,,,-99.99,,2013-01-14 21:03:00,
2013-01-14 16:13:00,41.0,32.0,30.14,NNW,348,4.0,12.0,70,-99.99,,,-99.99,,2013-01-14 21:13:00,
2013-01-14 16:23:00,41.0,32.0,30.14,NNW,348,4.0,12.0,70,-99.99,,,-99.99,,2013-01-14 21:23:00,
2013-01-14 17:53:00,36.0,29.0,30.15,NNW,335,2.0,6.0,74,-99.99,,,-99.99,,2013-01-14 22:53:00,
2013-01-14 18:03:00,36.0,29.0,30.15,NNW,335,2.0,6.0,74,-99.99,,,-99.99,,2013-01-14 23:03:00,
2013-01-14 18:12:00,36.0,29.0,30.15,NNW,335,2.0,6.0,74,-99.99,,,-99.99,,2013-01-14 23:12:00,
2013-01-14 18:23:00,36.0,29.0,30.15,NNW,335,2.0,6.0,74,-99.99,,,-99.99,,2013-01-14 23:23:00,
2013-01-14 18:53:00,35.0,28.0,30.18,NNW,339,6.0,6.0,74,-99.99,,,-99.99,,2013-01-14 23:53:00,
2013-01-14 19:03:00,35.0,28.0,30.18,NNW,339,6.0,6.0,74,-99.99,,,-99.99,,2013-01-15 00:03:00,
2013-01-14 19:12:00,35.0,28.0,30.18,NNW,339,6.0,6.0,74,-99.99,,,-99.99,,2013-01-15 00:12:00,
2013-01-14 19:23:00,35.0,28.0,30.18,NNW,339,6.0,6.0,74,-99.99,,,-99.99,,2013-01-15 00:23:00,
2013-01-14 20:53:00,35.0,29.0,30.21,NNW,346,2.0,4.0,80,-99.99,,,-99.99,,2013-01-15 01:53:00,
2013-01-14 21:03:00,35.0,29.0,30.21,NNW,346,2.0,4.0,80,-99.99,,,-99.99,,2013-01-15 02:03:00,
2013-01-14 21:12:00,35.0,29.0,30.21,NNW,346,2.0,4.0,80,-99.99,,,-99.99,,2013-01-15 02:12:00,
2013-01-14 21:23:00,35.0,29.0,30.21,NNW,346,2.0,4.0,80,-99.99,,,-99.99,,2013-01-15 02:23:00,
2013-01-14 22:33:00,35.0,29.0,30.20,West,270,0.0,3.0,79,-99.99,,,-99.99,,2013-01-15 03:33:00,
2013-01-14 22:43:00,35.0,29.0,30.20,West,270,0.0,3.0,79,-99.99,,,-99.99,,2013-01-15 03:43:00,
2013-01-14 22:53:00,35.0,29.0,30.20,West,270,1.0,3.0,79,-99.99,,,-99.99,,2013-01-15 03:53:00,
2013-01-14 23:03:00,35.0,29.0,30.20,West,270,1.0,3.0,79,-99.99,,,-99.99,,2013-01-15 04:03:00,
2013-01-14 23:12:00,35.0,29.0,30.20,West,270,1.0,3.0,79,-99.99,,,-99.99,,2013-01-15 04:12:00,
2013-01-14 23:22:00,35.0,29.0,30.20,West,270,1.0,3.0,79,-99.99,,,-99.99,,2013-01-15 04:22:00,
2013-01-14 23:32:00,35.0,29.0,30.25,West,270,0.0,2.0,79,-99.99,,,-99.99,,2013-01-15 04:32:00,
2013-01-14 23:43:00,35.0,29.0,30.25,West,270,0.0,2.0,79,-99.99,,,-99.99,,2013-01-15 04:43:00,
2013-01-14 23:52:00,35.0,29.0,30.25,West,270,0.0,2.0,79,-99.99,,,-99.99,,2013-01-15 04:52:00,